Time;durP1;ratioP1;P1;durP2;ratioP2;P2;SDS_P1;SDS_P2;PMS_P1;PMS_P2;Temp;Humidity;BMP_temperature;BMP_pressure;BME280_temperature;BME280_humidity;BME280_pressure;Samples;Min_cycle;Max_cycle;Signal;HPM_P1;HPM_P2
2021/01/03 00:00:31;;;;;;;8.60;7.30;;;3.70;99.90;;;;;;5069335;28;20208;-58
2021/01/03 00:02:58;;;;;;;8.20;7.20;;;3.70;99.90;;;;;;5069679;28;20220;-58
2021/01/03 00:05:29;;;;;;;8.48;6.90;;;4.00;99.90;;;;;;5057270;28;20406;-58
2021/01/03 00:07:55;;;;;;;8.07;6.90;;;4.10;99.90;;;;;;5069310;28;20209;-58
2021/01/03 00:10:21;;;;;;;8.63;7.00;;;4.00;99.90;;;;;;5069208;28;20193;-59
2021/01/03 00:12:47;;;;;;;7.30;6.30;;;3.80;99.90;;;;;;5069595;28;20217;-58
2021/01/03 00:15:17;;;;;;;7.47;6.00;;;3.70;99.90;;;;;;5069154;28;20178;-59
2021/01/03 00:17:43;;;;;;;8.13;6.50;;;3.80;99.90;;;;;;5069494;28;20444;-58
2021/01/03 00:20:23;;;;;;;7.80;6.82;;;3.50;99.90;;;;;;5069043;28;20251;-58
2021/01/03 00:22:49;;;;;;;8.85;6.78;;;3.50;99.90;;;;;;5068267;28;20189;-59
2021/01/03 00:25:16;;;;;;;7.57;5.90;;;3.40;99.90;;;;;;5068914;28;20238;-58
2021/01/03 00:27:41;;;;;;;7.88;7.10;;;3.40;99.90;;;;;;5068666;28;20208;-59
2021/01/03 00:30:11;;;;;;;9.90;7.80;;;3.50;99.90;;;;;;5068596;28;20184;-59
2021/01/03 00:32:37;;;;;;;7.85;6.35;;;3.50;99.90;;;;;;5068385;28;20193;-58
2021/01/03 00:35:05;;;;;;;8.70;6.82;;;3.50;99.90;;;;;;5068791;28;20200;-59
2021/01/03 00:37:31;;;;;;;8.32;6.88;;;3.50;99.90;;;;;;5068337;28;20216;-59
2021/01/03 00:39:56;;;;;;;6.67;5.97;;;3.60;99.90;;;;;;5064162;28;20189;-59
2021/01/03 00:42:22;;;;;;;7.07;6.33;;;3.50;99.90;;;;;;5062604;28;20534;-59
2021/01/03 00:44:47;;;;;;;7.40;5.73;;;3.60;99.90;;;;;;5068770;28;20224;-59
2021/01/03 00:47:13;;;;;;;8.23;6.27;;;3.70;99.90;;;;;;5068070;28;20533;-59
2021/01/03 00:49:39;;;;;;;7.70;6.27;;;3.50;99.90;;;;;;5068089;28;20216;-59
2021/01/03 00:52:04;;;;;;;8.33;6.37;;;3.80;99.90;;;;;;5067802;28;20467;-58
2021/01/03 00:54:30;;;;;;;6.77;5.90;;;3.70;99.90;;;;;;5068473;28;20191;-58
2021/01/03 00:56:56;;;;;;;7.43;6.63;;;3.90;99.90;;;;;;5067468;28;20266;-59
2021/01/03 00:59:21;;;;;;;6.63;5.93;;;3.70;99.90;;;;;;5068588;28;20185;-59
2021/01/03 01:01:47;;;;;;;8.33;7.20;;;3.90;99.90;;;;;;5067418;28;20197;-60
2021/01/03 01:04:12;;;;;;;8.40;7.40;;;3.70;99.90;;;;;;5067656;28;20185;-59
2021/01/03 01:06:38;;;;;;;7.50;6.43;;;3.80;99.90;;;;;;5065042;28;20196;-59
2021/01/03 01:09:04;;;;;;;7.40;6.40;;;3.10;99.90;;;;;;5065847;28;20552;-59
2021/01/03 01:11:30;;;;;;;8.37;7.00;;;4.00;99.90;;;;;;5066874;28;20455;-59
2021/01/03 01:13:56;;;;;;;7.77;6.30;;;3.40;99.90;;;;;;5061062;28;20860;-58
2021/01/03 01:16:22;;;;;;;7.53;6.03;;;3.40;99.90;;;;;;5061010;28;20638;-59
2021/01/03 01:18:47;;;;;;;9.18;6.72;;;3.20;99.90;;;;;;5067881;28;20236;-58
2021/01/03 01:21:14;;;;;;;7.63;6.13;;;3.40;99.90;;;;;;5067741;28;20225;-59
2021/01/03 01:23:39;;;;;;;8.02;7.10;;;3.50;99.90;;;;;;5067965;28;20679;-59
2021/01/03 01:26:05;;;;;;;8.80;6.80;;;3.50;99.90;;;;;;5067891;28;20268;-59
2021/01/03 01:28:30;;;;;;;7.67;6.87;;;3.50;99.90;;;;;;5067789;28;20204;-59
2021/01/03 01:30:57;;;;;;;9.80;5.93;;;3.70;99.90;;;;;;5066916;28;20241;-58
2021/01/03 01:33:23;;;;;;;7.60;6.78;;;3.80;99.90;;;;;;5067354;28;20181;-59
2021/01/03 01:35:48;;;;;;;13.38;8.00;;;3.70;99.90;;;;;;5067815;28;20184;-58
2021/01/03 01:38:14;;;;;;;10.63;8.10;;;3.60;99.90;;;;;;5067942;28;20197;-59
2021/01/03 01:40:42;;;;;;;8.93;7.07;;;3.40;99.90;;;;;;5062768;28;20173;-59
2021/01/03 01:43:11;;;;;;;8.02;6.82;;;3.60;99.90;;;;;;5067042;28;21039;-58
2021/01/03 01:45:40;;;;;;;9.70;7.75;;;3.60;99.90;;;;;;5067346;28;20265;-58
2021/01/03 01:48:13;;;;;;;8.20;7.00;;;3.50;99.90;;;;;;5065965;28;20362;-59
2021/01/03 01:50:46;;;;;;;7.32;6.63;;;3.60;99.90;;;;;;5066669;28;20181;-59
2021/01/03 01:53:19;;;;;;;7.43;6.47;;;3.30;99.90;;;;;;5067456;28;20228;-58
2021/01/03 01:55:52;;;;;;;6.95;6.25;;;3.50;99.90;;;;;;5067835;28;20219;-59
2021/01/03 01:58:48;;;;;;;10.00;7.70;;;3.50;99.90;;;;;;5067238;28;20201;-58
2021/01/03 02:01:20;;;;;;;9.18;7.13;;;3.50;99.90;;;;;;5067189;28;20181;-59
2021/01/03 02:04:02;;;;;;;10.32;7.25;;;3.50;99.90;;;;;;5069091;28;20230;-58
2021/01/03 02:06:46;;;;;;;10.57;6.80;;;3.40;99.90;;;;;;5064231;28;20226;-58
2021/01/03 02:09:33;;;;;;;8.40;7.32;;;3.50;99.90;;;;;;5071158;28;20263;-58
2021/01/03 02:12:08;;;;;;;10.32;7.25;;;3.80;99.90;;;;;;5071083;28;20289;-60
2021/01/03 02:14:34;;;;;;;8.30;6.93;;;3.70;99.90;;;;;;5071177;28;20184;-58
2021/01/03 02:17:00;;;;;;;9.83;8.23;;;3.90;99.90;;;;;;5070996;28;20571;-58
2021/01/03 02:19:29;;;;;;;8.93;7.90;;;3.70;99.90;;;;;;5071173;28;20241;-59
2021/01/03 02:22:08;;;;;;;9.43;8.10;;;3.70;99.90;;;;;;5070231;28;20276;-58
2021/01/03 02:24:45;;;;;;;10.65;8.02;;;3.40;99.90;;;;;;5071444;28;20181;-58
2021/01/03 02:27:14;;;;;;;9.85;8.52;;;3.10;99.90;;;;;;5071017;28;20208;-58
2021/01/03 02:29:44;;;;;;;10.15;9.02;;;3.10;99.90;;;;;;5070740;28;20192;-58
2021/01/03 02:32:10;;;;;;;12.23;9.05;;;3.40;99.90;;;;;;5070892;28;20197;-58
2021/01/03 02:34:41;;;;;;;12.73;9.00;;;3.30;99.90;;;;;;5070988;28;20180;-58
2021/01/03 02:37:11;;;;;;;10.15;8.55;;;3.30;99.90;;;;;;5070749;28;20233;-59
2021/01/03 02:39:59;;;;;;;11.88;9.80;;;3.40;99.90;;;;;;5074853;28;20672;-58
2021/01/03 02:42:36;;;;;;;10.85;9.25;;;2.90;99.90;;;;;;5057723;28;20596;-58
2021/01/03 02:45:07;;;;;;;12.20;9.32;;;3.20;99.90;;;;;;5070936;28;20193;-58
2021/01/03 02:47:35;;;;;;;11.13;8.68;;;3.00;99.90;;;;;;5070668;28;20221;-59
2021/01/03 02:50:03;;;;;;;12.75;9.70;;;3.20;99.90;;;;;;5070718;28;20197;-59
2021/01/03 02:52:32;;;;;;;11.70;9.32;;;3.00;99.90;;;;;;5080045;28;20211;-57
2021/01/03 02:54:58;;;;;;;11.65;9.68;;;3.30;99.90;;;;;;5058098;28;20239;-58
2021/01/03 02:57:24;;;;;;;12.67;9.40;;;2.80;99.90;;;;;;5069395;28;20196;-58
2021/01/03 02:59:49;;;;;;;12.63;10.47;;;2.70;99.90;;;;;;5070661;28;20185;-58
2021/01/03 03:02:15;;;;;;;14.63;11.00;;;2.80;99.90;;;;;;5070686;28;20450;-58
2021/01/03 03:04:41;;;;;;;12.30;9.50;;;2.70;99.90;;;;;;5070286;28;20654;-59
2021/01/03 03:07:06;;;;;;;12.27;10.00;;;3.00;99.90;;;;;;5065190;28;20204;-58
2021/01/03 03:09:32;;;;;;;13.07;10.10;;;2.80;99.90;;;;;;5067737;28;20218;-58
2021/01/03 03:11:57;;;;;;;12.27;10.17;;;2.80;99.90;;;;;;5069799;28;20290;-58
2021/01/03 03:14:23;;;;;;;14.03;11.67;;;2.60;99.90;;;;;;5078474;28;20178;-58
2021/01/03 03:16:55;;;;;;;13.57;10.90;;;2.80;99.90;;;;;;5061382;28;20181;-59
2021/01/03 03:19:20;;;;;;;14.35;11.35;;;2.50;99.90;;;;;;5069489;28;20185;-58
2021/01/03 03:21:46;;;;;;;15.70;11.07;;;2.50;99.90;;;;;;5071566;28;20181;-59
2021/01/03 03:24:12;;;;;;;13.80;11.17;;;2.80;99.90;;;;;;5069923;28;20188;-59
2021/01/03 03:26:37;;;;;;;15.27;10.80;;;2.90;99.90;;;;;;5069763;28;20185;-58
2021/01/03 03:29:03;;;;;;;13.47;10.87;;;2.70;99.90;;;;;;5069571;28;20555;-58
2021/01/03 03:31:29;;;;;;;14.63;11.13;;;2.80;99.90;;;;;;5069341;28;20200;-58
2021/01/03 03:33:55;;;;;;;14.23;10.90;;;2.80;99.90;;;;;;5069727;28;20490;-58
2021/01/03 03:36:20;;;;;;;15.40;10.77;;;2.80;99.90;;;;;;5070032;28;20694;-59
2021/01/03 03:38:46;;;;;;;14.97;11.23;;;2.50;99.90;;;;;;5069429;28;20875;-58
2021/01/03 03:41:20;;;;;;;16.43;12.07;;;2.80;99.90;;;;;;5062492;28;20169;-58
2021/01/03 03:43:47;;;;;;;17.45;11.85;;;2.90;99.90;;;;;;5069609;28;20672;-58
2021/01/03 03:46:13;;;;;;;14.40;11.00;;;2.50;99.90;;;;;;5068856;28;20515;-58
2021/01/03 03:48:38;;;;;;;11.95;10.10;;;2.50;99.90;;;;;;5069384;28;20208;-59
2021/01/03 03:51:04;;;;;;;14.33;11.03;;;2.60;99.90;;;;;;5069811;28;20185;-58
2021/01/03 03:53:30;;;;;;;15.23;11.40;;;2.90;99.90;;;;;;5069165;28;20192;-58
2021/01/03 03:55:55;;;;;;;15.43;12.47;;;2.60;99.90;;;;;;5069697;28;20185;-58
2021/01/03 03:58:21;;;;;;;15.00;11.57;;;2.60;99.90;;;;;;5069376;28;20482;-57
2021/01/03 04:00:46;;;;;;;14.00;11.70;;;2.60;99.90;;;;;;5069632;28;20270;-58
2021/01/03 04:03:12;;;;;;;13.50;11.07;;;2.30;99.90;;;;;;5068959;28;20284;-58
2021/01/03 04:05:38;;;;;;;13.57;11.03;;;2.60;99.90;;;;;;5070703;28;20189;-58
2021/01/03 04:08:03;;;;;;;17.40;12.13;;;2.60;99.90;;;;;;5068893;28;20213;-58
2021/01/03 04:10:30;;;;;;;15.27;12.33;;;2.70;99.90;;;;;;5069654;28;20185;-58
2021/01/03 04:12:55;;;;;;;16.85;12.45;;;2.60;99.90;;;;;;5069554;28;20213;-59
2021/01/03 04:15:21;;;;;;;15.87;12.40;;;2.60;99.90;;;;;;5069358;28;20684;-58
2021/01/03 04:17:48;;;;;;;12.17;10.40;;;2.50;99.90;;;;;;5069088;28;20200;-58
2021/01/03 04:20:17;;;;;;;16.27;12.05;;;2.60;99.90;;;;;;5068281;28;20177;-58
2021/01/03 04:22:44;;;;;;;16.00;11.32;;;2.30;99.90;;;;;;5069085;28;20189;-59
2021/01/03 04:25:11;;;;;;;18.58;13.52;;;2.70;99.90;;;;;;5069142;28;20288;-58
2021/01/03 04:27:37;;;;;;;14.88;12.15;;;2.70;99.90;;;;;;5068122;28;20199;-58
2021/01/03 04:30:05;;;;;;;14.40;11.52;;;2.70;99.90;;;;;;5068803;28;20646;-58
2021/01/03 04:32:31;;;;;;;15.93;12.32;;;2.70;99.90;;;;;;5068318;28;20205;-58
2021/01/03 04:34:56;;;;;;;16.00;11.40;;;2.90;99.90;;;;;;5068258;28;20188;-58
2021/01/03 04:37:22;;;;;;;13.80;10.57;;;3.00;99.90;;;;;;5067428;28;20778;-58
2021/01/03 04:39:56;;;;;;;16.90;12.20;;;2.80;99.90;;;;;;5061588;28;20193;-58
2021/01/03 04:42:29;;;;;;;14.68;10.98;;;2.70;99.90;;;;;;5056337;28;20185;-58
2021/01/03 04:45:00;;;;;;;16.73;11.50;;;2.70;99.90;;;;;;5068309;28;20558;-58
2021/01/03 04:47:51;;;;;;;12.77;11.02;;;2.90;99.90;;;;;;5068668;28;20584;-59
2021/01/03 04:50:33;;;;;;;15.32;11.70;;;2.80;99.90;;;;;;5075860;28;20651;-58
2021/01/03 04:53:10;;;;;;;14.63;11.43;;;2.70;99.90;;;;;;5048166;28;20221;-58
2021/01/03 04:55:42;;;;;;;14.60;11.32;;;2.40;99.90;;;;;;5060435;28;20172;-59
2021/01/03 04:58:14;;;;;;;14.20;12.00;;;2.50;99.90;;;;;;5067791;28;20212;-58
2021/01/03 05:00:54;;;;;;;16.65;11.57;;;2.50;99.90;;;;;;5068324;28;20269;-58
2021/01/03 05:04:02;;;;;;;16.42;11.45;;;2.70;99.90;;;;;;5068036;28;20222;-59
2021/01/03 05:06:28;;;;;;;15.10;11.88;;;2.60;99.90;;;;;;5057254;28;20246;-58
2021/01/03 05:09:07;;;;;;;14.85;11.13;;;2.30;99.90;;;;;;5067862;28;20216;-59
2021/01/03 05:11:53;;;;;;;13.60;10.85;;;2.40;99.90;;;;;;5066922;28;20257;-59
2021/01/03 05:14:41;;;;;;;14.95;12.02;;;2.40;99.90;;;;;;5047195;28;20197;-59
2021/01/03 05:17:07;;;;;;;13.82;11.32;;;2.80;99.90;;;;;;5068024;28;20211;-59
2021/01/03 05:19:32;;;;;;;16.10;12.20;;;2.50;99.90;;;;;;5067912;28;20180;-58
2021/01/03 05:21:58;;;;;;;17.80;12.47;;;2.50;99.90;;;;;;5068083;28;20242;-59
2021/01/03 05:24:25;;;;;;;15.00;11.30;;;2.40;99.90;;;;;;5067743;28;20801;-58
2021/01/03 05:26:51;;;;;;;13.25;10.45;;;2.30;99.90;;;;;;5068007;28;20239;-59
2021/01/03 05:29:24;;;;;;;16.45;12.23;;;2.40;99.90;;;;;;5064000;28;20216;-58
2021/01/03 05:32:06;;;;;;;14.63;11.05;;;2.30;99.90;;;;;;5067220;28;20235;-59
2021/01/03 05:34:31;;;;;;;13.45;10.65;;;2.80;99.90;;;;;;5067574;28;20599;-58
2021/01/03 05:37:04;;;;;;;13.60;10.50;;;2.80;99.90;;;;;;5067741;28;20204;-59
2021/01/03 05:39:32;;;;;;;15.10;10.77;;;2.70;99.90;;;;;;5067354;28;20169;-59
2021/01/03 05:42:16;;;;;;;14.85;11.18;;;2.80;99.90;;;;;;5067417;28;20185;-58
2021/01/03 05:44:53;;;;;;;15.43;11.43;;;2.90;99.90;;;;;;5067578;28;20207;-58
2021/01/03 05:47:33;;;;;;;13.25;10.10;;;2.20;99.90;;;;;;5061853;28;20229;-59
2021/01/03 05:50:41;;;;;;;16.10;11.80;;;2.00;99.90;;;;;;5056218;28;20276;-59
2021/01/03 05:53:21;;;;;;;15.32;11.52;;;2.60;99.90;;;;;;5026443;28;20694;-58
2021/01/03 05:55:51;;;;;;;12.65;11.25;;;2.20;99.90;;;;;;5022972;28;20196;-59
2021/01/03 05:58:19;;;;;;;14.30;10.93;;;2.50;99.90;;;;;;5038212;28;20690;-59
2021/01/03 06:00:47;;;;;;;13.00;9.75;;;2.20;99.90;;;;;;5067378;28;20283;-57
2021/01/03 06:03:12;;;;;;;14.43;10.63;;;2.40;99.90;;;;;;5073158;28;20321;-58
2021/01/03 06:05:46;;;;;;;15.53;11.60;;;2.50;99.90;;;;;;5080533;28;20268;-58
2021/01/03 06:08:19;;;;;;;12.90;9.95;;;2.50;99.90;;;;;;5054883;28;20349;-59
2021/01/03 06:10:45;;;;;;;15.30;11.45;;;2.60;99.90;;;;;;5067263;28;20185;-58
2021/01/03 06:13:13;;;;;;;14.73;11.23;;;2.60;99.90;;;;;;5068684;28;20205;-58
2021/01/03 06:15:51;;;;;;;16.15;12.05;;;2.70;99.90;;;;;;5067370;28;20442;-58
2021/01/03 06:18:28;;;;;;;15.18;11.73;;;2.70;99.90;;;;;;5061234;28;20194;-58
2021/01/03 06:20:54;;;;;;;16.15;12.73;;;2.50;99.90;;;;;;5061510;28;20267;-59
2021/01/03 06:23:30;;;;;;;13.00;10.63;;;2.70;99.90;;;;;;5067470;28;20315;-58
2021/01/03 06:26:19;;;;;;;14.45;11.65;;;2.70;99.90;;;;;;5063254;28;20560;-59
2021/01/03 06:28:52;;;;;;;14.63;12.15;;;2.70;99.90;;;;;;5066742;28;20209;-58
2021/01/03 06:31:34;;;;;;;14.30;11.00;;;2.80;99.90;;;;;;5066969;28;20372;-59
2021/01/03 06:34:09;;;;;;;13.00;11.07;;;2.70;99.90;;;;;;5067255;28;20536;-58
2021/01/03 06:36:55;;;;;;;15.90;12.13;;;2.70;99.90;;;;;;5065744;28;20180;-59
2021/01/03 06:39:33;;;;;;;15.50;13.07;;;2.70;99.90;;;;;;5061804;28;20467;-58
2021/01/03 06:42:25;;;;;;;14.00;10.95;;;2.50;99.90;;;;;;5070938;28;20675;-59
2021/01/03 06:45:32;;;;;;;15.30;11.77;;;2.50;99.90;;;;;;5057085;28;20276;-59
2021/01/03 06:48:22;;;;;;;14.27;11.35;;;2.60;99.90;;;;;;5055684;28;20229;-58
2021/01/03 06:50:59;;;;;;;14.75;11.68;;;2.60;99.90;;;;;;5069921;28;20647;-58
2021/01/03 06:53:40;;;;;;;16.80;12.15;;;2.90;99.90;;;;;;5069786;28;20331;-58
2021/01/03 06:56:05;;;;;;;15.40;12.60;;;2.50;99.90;;;;;;5070376;28;20181;-58
2021/01/03 06:58:59;;;;;;;15.87;11.53;;;2.50;99.90;;;;;;5070414;28;20205;-58
2021/01/03 07:01:29;;;;;;;16.65;12.80;;;2.50;99.90;;;;;;5070507;28;20617;-58
2021/01/03 07:03:58;;;;;;;16.90;12.45;;;2.70;99.90;;;;;;5070548;28;20592;-58
2021/01/03 07:06:33;;;;;;;16.88;13.05;;;2.70;99.90;;;;;;5061305;28;20642;-58
2021/01/03 07:09:09;;;;;;;17.02;11.77;;;2.30;99.90;;;;;;5058204;28;20271;-58
2021/01/03 07:11:46;;;;;;;19.15;13.13;;;2.60;99.90;;;;;;5068984;28;20212;-58
2021/01/03 07:14:21;;;;;;;14.23;11.00;;;2.30;99.90;;;;;;5070298;28;20176;-57
2021/01/03 07:16:47;;;;;;;17.00;12.07;;;2.70;99.90;;;;;;5071232;28;20184;-58
2021/01/03 07:19:18;;;;;;;14.80;11.17;;;2.50;99.90;;;;;;5070061;28;20551;-59
2021/01/03 07:21:44;;;;;;;15.05;10.90;;;2.60;99.90;;;;;;5070156;28;20530;-58
2021/01/03 07:24:22;;;;;;;17.08;12.05;;;2.80;99.90;;;;;;5066770;28;20186;-59
2021/01/03 07:27:24;;;;;;;12.80;10.65;;;2.80;99.90;;;;;;5057880;28;20246;-58
2021/01/03 07:29:56;;;;;;;18.33;11.70;;;2.70;99.90;;;;;;5069296;28;20188;-58
2021/01/03 07:32:27;;;;;;;15.60;12.13;;;3.20;99.90;;;;;;5069857;28;20193;-60
2021/01/03 07:34:54;;;;;;;17.13;11.82;;;2.70;99.90;;;;;;5070071;28;20177;-59
2021/01/03 07:37:25;;;;;;;16.10;11.27;;;2.60;99.90;;;;;;5069731;28;20211;-58
2021/01/03 07:40:16;;;;;;;15.18;11.23;;;2.60;99.90;;;;;;5069800;28;20707;-59
2021/01/03 07:42:45;;;;;;;16.35;12.32;;;2.70;99.90;;;;;;5062158;28;20666;-58
2021/01/03 07:45:13;;;;;;;17.02;11.18;;;2.80;99.90;;;;;;5058920;28;20276;-59
2021/01/03 07:47:47;;;;;;;15.32;10.35;;;3.00;99.90;;;;;;5064625;28;20690;-58
2021/01/03 07:50:19;;;;;;;16.70;12.43;;;2.70;99.90;;;;;;5066271;28;20185;-59
2021/01/03 07:52:49;;;;;;;16.77;12.52;;;2.60;99.90;;;;;;5061958;28;20197;-58
2021/01/03 07:55:29;;;;;;;15.60;11.35;;;2.60;99.90;;;;;;5057090;28;20511;-58
2021/01/03 07:58:00;;;;;;;16.45;11.45;;;2.80;99.90;;;;;;5070703;28;20197;-58
2021/01/03 08:00:29;;;;;;;16.58;12.05;;;2.60;99.90;;;;;;5062528;28;20424;-59
2021/01/03 08:03:03;;;;;;;14.60;11.20;;;2.80;99.90;;;;;;5055335;28;20188;-57
2021/01/03 08:05:29;;;;;;;16.05;11.98;;;2.50;99.90;;;;;;5060738;28;20189;-57
2021/01/03 08:08:21;;;;;;;17.00;12.30;;;2.50;99.90;;;;;;5062026;28;20574;-58
2021/01/03 08:10:49;;;;;;;16.73;12.02;;;2.80;99.90;;;;;;5061454;28;20192;-58
2021/01/03 08:13:21;;;;;;;18.80;13.70;;;2.80;99.90;;;;;;5064228;28;20705;-58
2021/01/03 08:15:47;;;;;;;17.17;12.40;;;2.80;99.90;;;;;;5060386;28;20170;-57
2021/01/03 08:18:15;;;;;;;15.85;11.70;;;2.40;99.90;;;;;;5066919;28;20293;-58
2021/01/03 08:20:41;;;;;;;16.63;12.30;;;2.80;99.90;;;;;;5056420;28;20531;-58
2021/01/03 08:23:09;;;;;;;15.13;11.87;;;3.00;99.90;;;;;;5068611;28;20217;-58
2021/01/03 08:25:35;;;;;;;20.17;13.20;;;2.70;99.90;;;;;;5056181;28;20561;-58
2021/01/03 08:28:17;;;;;;;15.75;12.52;;;2.60;99.90;;;;;;5066683;28;20689;-58
2021/01/03 08:30:44;;;;;;;14.68;10.90;;;2.60;99.90;;;;;;5064813;28;20283;-57
2021/01/03 08:33:16;;;;;;;16.65;10.75;;;2.90;99.90;;;;;;5064704;28;20304;-58
2021/01/03 08:35:42;;;;;;;12.95;10.15;;;2.90;99.90;;;;;;5055683;28;20181;-58
2021/01/03 08:38:08;;;;;;;14.20;10.27;;;2.20;99.90;;;;;;5066171;28;20205;-57
2021/01/03 08:40:40;;;;;;;15.13;10.80;;;2.80;99.90;;;;;;5072211;28;20807;-57
2021/01/03 08:43:15;;;;;;;13.90;10.43;;;2.90;99.90;;;;;;5048925;28;20188;-58
2021/01/03 08:45:43;;;;;;;14.82;10.80;;;3.20;99.90;;;;;;5058629;28;20196;-57
2021/01/03 08:48:18;;;;;;;15.65;12.30;;;2.90;99.90;;;;;;5067080;28;20319;-57
2021/01/03 08:50:44;;;;;;;13.13;10.07;;;2.80;99.90;;;;;;5056544;28;20180;-58
2021/01/03 08:53:24;;;;;;;12.80;9.80;;;3.00;99.90;;;;;;5052899;28;20203;-57
2021/01/03 08:55:59;;;;;;;14.18;9.73;;;3.10;99.90;;;;;;5052223;28;20435;-58
2021/01/03 08:58:37;;;;;;;14.85;11.02;;;3.10;99.90;;;;;;5054168;28;20227;-58
2021/01/03 09:01:30;;;;;;;13.45;9.85;;;3.20;99.90;;;;;;5062120;28;20309;-57
2021/01/03 09:04:06;;;;;;;12.68;9.70;;;3.10;99.90;;;;;;5064535;28;20224;-57
2021/01/03 09:06:33;;;;;;;14.63;9.50;;;3.00;99.90;;;;;;5051441;28;20646;-57
2021/01/03 09:09:13;;;;;;;11.93;9.10;;;3.30;99.90;;;;;;5053936;28;20193;-59
2021/01/03 09:11:49;;;;;;;13.85;10.68;;;3.60;99.90;;;;;;5055848;28;20238;-58
2021/01/03 09:14:32;;;;;;;14.02;10.75;;;3.20;99.90;;;;;;5062809;28;20715;-59
2021/01/03 09:17:06;;;;;;;14.25;11.63;;;3.10;99.90;;;;;;5067471;28;20209;-58
2021/01/03 09:19:55;;;;;;;15.18;10.57;;;3.10;99.90;;;;;;5067233;28;20183;-58
2021/01/03 09:22:30;;;;;;;11.75;9.65;;;3.10;99.90;;;;;;5067472;28;20676;-58
2021/01/03 09:25:19;;;;;;;13.70;10.30;;;3.10;99.90;;;;;;5066683;28;20196;-59
2021/01/03 09:27:51;;;;;;;13.48;10.55;;;3.30;99.90;;;;;;5059947;28;20265;-58
2021/01/03 09:30:20;;;;;;;13.30;10.48;;;3.40;99.90;;;;;;5079339;28;20180;-58
2021/01/03 09:32:51;;;;;;;14.18;10.60;;;3.40;99.90;;;;;;5048854;28;20351;-58
2021/01/03 09:35:29;;;;;;;12.85;9.98;;;3.40;99.90;;;;;;5047223;28;20235;-58
2021/01/03 09:38:32;;;;;;;13.00;10.55;;;2.70;99.90;;;;;;5055714;28;20212;-58
2021/01/03 09:41:04;;;;;;;11.50;9.43;;;3.20;99.90;;;;;;5063949;28;20173;-58
2021/01/03 09:43:49;;;;;;;14.05;10.88;;;3.40;99.90;;;;;;5067378;28;20321;-58
2021/01/03 09:46:26;;;;;;;12.20;10.25;;;3.70;99.90;;;;;;5067295;28;20177;-59
2021/01/03 09:48:52;;;;;;;12.30;9.70;;;3.90;99.90;;;;;;5066346;28;20211;-58
2021/01/03 09:51:34;;;;;;;12.77;9.70;;;3.70;99.90;;;;;;5061394;28;20189;-59
2021/01/03 09:54:14;;;;;;;13.20;10.15;;;4.00;99.90;;;;;;5055674;28;20209;-59
2021/01/03 09:56:42;;;;;;;12.57;9.70;;;4.00;99.90;;;;;;5054376;28;20662;-58
2021/01/03 09:59:17;;;;;;;13.38;10.30;;;4.10;99.90;;;;;;5048910;28;20217;-59
2021/01/03 10:01:45;;;;;;;12.65;9.20;;;3.90;99.90;;;;;;5055263;28;20184;-58
2021/01/03 10:04:16;;;;;;;11.93;9.45;;;4.10;99.90;;;;;;5048454;28;20267;-59
2021/01/03 10:06:45;;;;;;;15.13;10.77;;;3.50;99.90;;;;;;5056819;28;21203;-58
2021/01/03 10:09:17;;;;;;;13.38;10.90;;;3.90;99.90;;;;;;5055442;28;20211;-59
2021/01/03 10:11:45;;;;;;;10.90;9.27;;;4.00;99.90;;;;;;5047723;28;20216;-58
2021/01/03 10:14:31;;;;;;;10.90;9.15;;;4.10;99.90;;;;;;5050354;28;20272;-58
2021/01/03 10:17:11;;;;;;;11.60;9.75;;;4.10;99.90;;;;;;5050125;28;20697;-58
2021/01/03 10:19:36;;;;;;;10.80;9.70;;;4.20;99.90;;;;;;5062979;28;20646;-58
2021/01/03 10:22:02;;;;;;;11.00;7.77;;;4.50;99.90;;;;;;5054523;28;20189;-58
2021/01/03 10:24:28;;;;;;;16.47;9.97;;;4.30;99.90;;;;;;5063250;28;20185;-58
2021/01/03 10:27:03;;;;;;;12.03;9.03;;;4.10;99.90;;;;;;5061863;28;20455;-59
2021/01/03 10:29:29;;;;;;;11.73;9.18;;;4.20;99.90;;;;;;5059710;28;20213;-57
2021/01/03 10:31:55;;;;;;;12.45;9.52;;;4.20;99.90;;;;;;5064066;28;20201;-59
2021/01/03 10:34:22;;;;;;;14.27;9.80;;;4.40;99.90;;;;;;5055050;28;20543;-57
2021/01/03 10:36:48;;;;;;;12.23;9.55;;;4.40;99.90;;;;;;5076649;28;20183;-58
2021/01/03 10:39:15;;;;;;;10.88;8.88;;;4.00;99.90;;;;;;5067669;28;20169;-58
2021/01/03 10:41:42;;;;;;;12.40;9.10;;;4.10;99.90;;;;;;5060964;28;20181;-58
2021/01/03 10:44:11;;;;;;;12.10;9.63;;;4.00;99.90;;;;;;5054300;28;20548;-57
2021/01/03 10:46:38;;;;;;;10.38;9.10;;;4.00;99.90;;;;;;5064926;28;20276;-57
2021/01/03 10:49:04;;;;;;;11.07;9.38;;;3.70;99.90;;;;;;5061019;28;20192;-58
2021/01/03 10:51:38;;;;;;;11.10;9.10;;;3.50;99.90;;;;;;5068084;28;20617;-58
2021/01/03 10:54:06;;;;;;;11.10;9.52;;;3.40;99.90;;;;;;5056025;28;20177;-58
2021/01/03 10:56:32;;;;;;;12.60;9.77;;;3.70;99.90;;;;;;5066946;28;20181;-58
2021/01/03 10:58:58;;;;;;;13.43;10.13;;;3.70;99.90;;;;;;5066720;28;20275;-58
2021/01/03 11:01:23;;;;;;;11.10;9.30;;;3.70;99.90;;;;;;5058983;28;20604;-58
2021/01/03 11:03:50;;;;;;;11.03;9.30;;;3.70;99.90;;;;;;5055260;28;20182;-58
2021/01/03 11:06:16;;;;;;;11.90;10.15;;;3.90;99.90;;;;;;5052887;28;20608;-58
2021/01/03 11:08:42;;;;;;;11.20;9.75;;;3.80;99.90;;;;;;5062886;28;20265;-59
2021/01/03 11:11:07;;;;;;;14.87;11.33;;;3.60;99.90;;;;;;5052192;28;20551;-58
2021/01/03 11:13:34;;;;;;;13.63;10.67;;;3.30;99.90;;;;;;5062192;28;20675;-58
2021/01/03 11:16:00;;;;;;;11.35;9.30;;;3.30;99.90;;;;;;5059501;28;20545;-57
2021/01/03 11:18:26;;;;;;;14.33;10.00;;;3.60;99.90;;;;;;5064443;28;20204;-59
2021/01/03 11:20:51;;;;;;;10.20;9.00;;;3.60;99.90;;;;;;5064042;28;20427;-58
2021/01/03 11:23:18;;;;;;;11.00;8.70;;;3.70;99.90;;;;;;5065778;28;20178;-59
2021/01/03 11:25:45;;;;;;;11.18;9.23;;;3.70;99.90;;;;;;5063283;28;20655;-58
2021/01/03 11:28:11;;;;;;;12.57;10.10;;;3.60;99.90;;;;;;5063228;28;21468;-57
2021/01/03 11:30:37;;;;;;;10.25;8.75;;;3.50;99.90;;;;;;5055940;28;20185;-59
2021/01/03 11:33:03;;;;;;;11.97;9.33;;;3.60;99.90;;;;;;5049339;28;20217;-58
2021/01/03 11:35:29;;;;;;;11.13;8.60;;;3.50;99.90;;;;;;5055979;28;20650;-58
2021/01/03 11:37:54;;;;;;;10.60;8.93;;;3.70;99.90;;;;;;5061686;28;20993;-58
2021/01/03 11:40:20;;;;;;;10.27;9.00;;;3.90;99.90;;;;;;5064051;28;20196;-58
2021/01/03 11:42:45;;;;;;;10.80;9.13;;;3.50;99.90;;;;;;5066633;28;20700;-56
2021/01/03 11:45:16;;;;;;;11.53;8.93;;;3.80;99.90;;;;;;5062302;28;20209;-58
2021/01/03 11:47:42;;;;;;;11.85;9.63;;;3.70;99.90;;;;;;5069049;28;20227;-58
2021/01/03 11:50:12;;;;;;;12.70;9.93;;;3.90;99.90;;;;;;5059044;28;20193;-57
2021/01/03 11:52:38;;;;;;;12.57;11.13;;;4.00;99.90;;;;;;5069016;28;20293;-57
2021/01/03 11:55:08;;;;;;;12.80;10.03;;;4.20;99.90;;;;;;5059110;28;20264;-56
2021/01/03 11:57:33;;;;;;;15.85;10.95;;;3.90;99.90;;;;;;5068484;28;20443;-56
2021/01/03 11:59:59;;;;;;;13.97;10.20;;;3.60;99.90;;;;;;5053015;28;20268;-56
2021/01/03 12:02:27;;;;;;;14.93;10.90;;;4.10;99.90;;;;;;5063284;28;20651;-56
2021/01/03 12:04:53;;;;;;;13.23;11.10;;;3.80;99.90;;;;;;5059377;28;20555;-56
2021/01/03 12:07:20;;;;;;;12.83;10.37;;;3.80;99.90;;;;;;5063923;28;20217;-57
2021/01/03 12:09:46;;;;;;;14.57;10.93;;;4.10;99.90;;;;;;5054051;28;20268;-57
2021/01/03 12:12:14;;;;;;;17.05;11.45;;;3.70;99.90;;;;;;5060415;28;20748;-56
2021/01/03 12:14:41;;;;;;;19.38;14.80;;;3.90;99.90;;;;;;5056597;28;20847;-56
2021/01/03 12:17:10;;;;;;;15.10;11.15;;;3.90;99.90;;;;;;5060882;28;20205;-56
2021/01/03 12:19:36;;;;;;;14.70;11.35;;;4.10;99.90;;;;;;5058495;28;20212;-56
2021/01/03 12:22:03;;;;;;;14.40;11.77;;;4.20;99.90;;;;;;5059203;28;20204;-57
2021/01/03 12:24:29;;;;;;;13.88;11.07;;;3.90;99.90;;;;;;5058756;28;20231;-55
2021/01/03 12:26:56;;;;;;;15.15;12.43;;;3.40;99.90;;;;;;5050884;28;20234;-56
2021/01/03 12:29:23;;;;;;;14.75;11.95;;;3.40;99.90;;;;;;5050425;28;20560;-56
2021/01/03 12:31:58;;;;;;;13.40;10.85;;;3.30;99.90;;;;;;5056803;28;20234;-57
2021/01/03 12:34:26;;;;;;;15.20;11.30;;;3.60;99.90;;;;;;5067401;28;20580;-57
2021/01/03 12:36:59;;;;;;;16.83;11.73;;;3.60;99.90;;;;;;5053737;28;20272;-57
2021/01/03 12:39:25;;;;;;;14.05;11.48;;;3.40;99.90;;;;;;5078243;28;20177;-57
2021/01/03 12:41:52;;;;;;;16.67;11.13;;;3.30;99.90;;;;;;5055887;28;20188;-58
2021/01/03 12:44:18;;;;;;;16.60;12.98;;;3.40;99.90;;;;;;5061447;28;20233;-57
2021/01/03 12:46:43;;;;;;;16.67;11.37;;;3.40;99.90;;;;;;5057796;28;20201;-58
2021/01/03 12:49:10;;;;;;;13.63;11.17;;;3.60;99.90;;;;;;5049436;28;20448;-58
2021/01/03 12:51:36;;;;;;;17.80;13.05;;;3.70;99.90;;;;;;5053382;28;20185;-57
2021/01/03 12:54:01;;;;;;;17.67;12.93;;;3.70;99.90;;;;;;5059627;28;20180;-57
2021/01/03 12:56:28;;;;;;;15.23;12.00;;;3.90;99.90;;;;;;5068413;28;20560;-58
2021/01/03 12:58:58;;;;;;;17.55;12.80;;;3.80;99.90;;;;;;5060433;28;20196;-58
2021/01/03 13:01:33;;;;;;;16.60;12.18;;;4.00;99.90;;;;;;5051990;28;20173;-58